Time;durP1;ratioP1;P1;durP2;ratioP2;P2;SDS_P1;SDS_P2;PMS_P1;PMS_P2;Temp;Humidity;BMP_temperature;BMP_pressure;BME280_temperature;BME280_humidity;BME280_pressure;Samples;Min_cycle;Max_cycle;Signal;HPM_P1;HPM_P2
2022/12/19 00:01:17;;;;;;;31.30;15.52;;;1.00;99.90;;;;;;5106794;28;20439;-84
2022/12/19 00:03:48;;;;;;;30.10;15.82;;;1.00;99.90;;;;;;5090530;28;20220;-84
2022/12/19 00:06:15;;;;;;;31.65;17.08;;;1.20;99.90;;;;;;5107524;28;20040;-84
2022/12/19 00:08:43;;;;;;;32.47;16.70;;;1.10;99.90;;;;;;5107718;28;20119;-84
2022/12/19 00:11:10;;;;;;;30.23;16.25;;;1.10;99.90;;;;;;5107360;28;20491;-84
2022/12/19 00:13:36;;;;;;;31.13;16.98;;;1.10;99.90;;;;;;5089501;28;20513;-84
2022/12/19 00:16:05;;;;;;;30.48;17.08;;;1.20;99.90;;;;;;5107970;28;20039;-84
2022/12/19 00:18:30;;;;;;;32.85;16.52;;;1.20;99.90;;;;;;5092626;28;20047;-84
2022/12/19 00:21:04;;;;;;;31.73;15.43;;;1.20;99.90;;;;;;5109035;28;20104;-83
2022/12/19 00:23:31;;;;;;;;;;;1.20;99.90;;;;;;5108764;28;20056;-84
2022/12/19 00:26:12;;;;;;;31.08;16.17;;;1.20;99.90;;;;;;5090917;28;19919;-85
2022/12/19 00:28:38;;;;;;;32.15;17.42;;;1.30;99.90;;;;;;5106956;28;20051;-84
2022/12/19 00:31:05;;;;;;;32.20;17.45;;;1.20;99.90;;;;;;5089872;28;20565;-84
2022/12/19 00:33:31;;;;;;;32.53;17.20;;;1.30;99.90;;;;;;5106771;28;20048;-85
2022/12/19 00:35:58;;;;;;;30.95;16.23;;;1.30;99.90;;;;;;5106315;28;20058;-84
2022/12/19 00:38:24;;;;;;;34.47;15.52;;;1.30;99.90;;;;;;5073402;28;20506;-84
2022/12/19 00:40:49;;;;;;;30.27;17.52;;;1.30;99.90;;;;;;5090857;28;20035;-84
2022/12/19 00:43:15;;;;;;;33.15;17.15;;;1.40;99.90;;;;;;5112675;28;20043;-85
2022/12/19 00:45:41;;;;;;;29.65;16.95;;;1.40;99.90;;;;;;5057596;28;20031;-85
2022/12/19 00:48:06;;;;;;;27.83;17.15;;;1.40;99.90;;;;;;5090896;28;20116;-85
2022/12/19 00:50:32;;;;;;;33.47;18.02;;;1.40;99.90;;;;;;5106850;28;20494;-85
2022/12/19 00:52:58;;;;;;;32.75;17.90;;;1.40;99.90;;;;;;5089408;28;20040;-84
2022/12/19 00:55:23;;;;;;;31.00;17.40;;;1.50;99.90;;;;;;5106315;28;20081;-85
2022/12/19 00:57:49;;;;;;;29.42;15.57;;;1.50;99.90;;;;;;5106484;28;20071;-84
2022/12/19 01:00:16;;;;;;;30.05;15.75;;;1.50;99.90;;;;;;5106704;28;20051;-85
2022/12/19 01:02:42;;;;;;;31.58;17.02;;;1.50;99.90;;;;;;5106354;28;20088;-85
2022/12/19 01:05:08;;;;;;;31.20;17.58;;;1.50;99.90;;;;;;5090215;28;20050;-84
2022/12/19 01:07:34;;;;;;;28.42;15.98;;;0.50;99.90;;;;;;5106680;28;20438;-84
2022/12/19 01:10:01;;;;;;;26.52;15.93;;;1.50;99.90;;;;;;5106047;28;20047;-84
2022/12/19 01:12:44;;;;;;;30.17;16.42;;;1.60;99.90;;;;;;5089436;28;20046;-85
2022/12/19 01:15:11;;;;;;;29.88;15.50;;;1.60;99.90;;;;;;5092094;28;20040;-85
2022/12/19 01:17:37;;;;;;;30.65;17.38;;;1.60;99.90;;;;;;5071838;28;20040;-85
2022/12/19 01:20:03;;;;;;;35.55;18.17;;;1.60;99.90;;;;;;5108432;27;20551;-83
2022/12/19 01:22:29;;;;;;;33.03;16.58;;;1.70;99.90;;;;;;5128020;27;20062;-85
2022/12/19 01:24:54;;;;;;;27.55;16.10;;;1.70;99.90;;;;;;5108419;27;20051;-84
2022/12/19 01:27:20;;;;;;;28.80;15.90;;;1.70;99.90;;;;;;5075114;27;20050;-85
2022/12/19 01:29:46;;;;;;;30.60;16.50;;;2.80;99.90;;;;;;5108461;27;20135;-85
2022/12/19 01:32:11;;;;;;;31.33;16.40;;;1.80;99.90;;;;;;5092105;27;20071;-85
2022/12/19 01:34:37;;;;;;;37.85;17.40;;;1.80;99.90;;;;;;5096826;27;20134;-84
2022/12/19 01:37:03;;;;;;;29.85;16.15;;;1.80;99.90;;;;;;5113360;27;20045;-85
2022/12/19 01:39:28;;;;;;;26.90;15.88;;;1.90;99.90;;;;;;5092840;27;20039;-84
2022/12/19 01:41:54;;;;;;;28.35;15.55;;;2.30;99.90;;;;;;5109088;27;20262;-84
2022/12/19 01:44:24;;;;;;;32.22;16.83;;;1.90;99.90;;;;;;5092956;27;20039;-84
2022/12/19 01:46:52;;;;;;;31.48;16.88;;;3.00;99.90;;;;;;5091710;27;20386;-84
2022/12/19 01:49:27;;;;;;;34.38;16.17;;;1.90;99.90;;;;;;5109630;27;20108;-84
2022/12/19 01:51:57;;;;;;;30.50;16.45;;;2.00;99.90;;;;;;5108271;27;20039;-85
2022/12/19 01:54:28;;;;;;;29.45;16.70;;;2.00;99.90;;;;;;5108598;27;20111;-84
2022/12/19 01:56:57;;;;;;;31.33;16.58;;;2.00;99.90;;;;;;5109593;27;20126;-84
2022/12/19 01:59:28;;;;;;;29.48;15.68;;;2.00;99.90;;;;;;5108396;27;20054;-84
2022/12/19 02:02:06;;;;;;;28.42;15.73;;;2.00;99.90;;;;;;5108876;28;20046;-84
2022/12/19 02:04:32;;;;;;;35.25;18.02;;;2.00;99.90;;;;;;5107744;27;20050;-84
2022/12/19 02:06:59;;;;;;;27.65;16.85;;;2.10;99.90;;;;;;5108346;27;20127;-83
2022/12/19 02:09:25;;;;;;;30.52;17.17;;;2.30;99.90;;;;;;5091261;27;20075;-84
2022/12/19 02:11:51;;;;;;;30.38;16.55;;;2.10;99.90;;;;;;5108247;28;20039;-84
2022/12/19 02:14:17;;;;;;;30.10;15.43;;;1.90;99.90;;;;;;5075401;27;20448;-83
2022/12/19 02:16:43;;;;;;;31.88;17.05;;;2.10;99.90;;;;;;5091437;28;20046;-84
2022/12/19 02:19:27;;;;;;;29.83;16.98;;;2.10;99.90;;;;;;5091960;28;20046;-84
2022/12/19 02:22:00;;;;;;;31.65;17.20;;;2.10;99.90;;;;;;5125797;28;20058;-84
2022/12/19 02:24:41;;;;;;;31.20;16.48;;;2.20;99.90;;;;;;5127311;28;20043;-84
2022/12/19 02:27:12;;;;;;;30.48;16.50;;;2.10;99.90;;;;;;5107810;28;20043;-83
2022/12/19 02:30:16;;;;;;;33.95;17.90;;;2.10;99.90;;;;;;5108217;28;20043;-84
2022/12/19 02:33:07;;;;;;;33.17;17.33;;;2.10;99.90;;;;;;5127188;28;20039;-84
2022/12/19 02:35:45;;;;;;;33.33;16.77;;;2.10;99.90;;;;;;5090522;28;20055;-84
2022/12/19 02:38:20;;;;;;;33.50;17.05;;;2.10;99.90;;;;;;5108020;28;20043;-84
2022/12/19 02:40:52;;;;;;;30.88;16.50;;;2.50;99.90;;;;;;5091387;28;20035;-84
2022/12/19 02:43:20;;;;;;;37.03;18.42;;;2.10;99.90;;;;;;5107402;28;20320;-84
2022/12/19 02:45:46;;;;;;;33.08;16.85;;;2.10;99.90;;;;;;5091552;28;20988;-84
2022/12/19 02:48:13;;;;;;;34.20;18.77;;;2.10;99.90;;;;;;5091949;28;20394;-83
2022/12/19 02:50:41;;;;;;;34.53;17.80;;;2.10;99.90;;;;;;5095079;27;20126;-83
2022/12/19 02:53:12;;;;;;;40.33;18.50;;;2.20;99.90;;;;;;5100695;27;20039;-81
2022/12/19 02:56:01;;;;;;;34.67;17.50;;;2.20;99.90;;;;;;5113694;27;20640;-85
2022/12/19 02:58:41;;;;;;;36.95;18.50;;;2.20;99.90;;;;;;5131833;27;20041;-83
2022/12/19 03:01:35;;;;;;;34.67;18.85;;;2.20;99.90;;;;;;5112776;27;20043;-83
2022/12/19 03:04:32;;;;;;;38.53;18.13;;;2.20;99.90;;;;;;5113847;27;20047;-83
2022/12/19 03:07:12;;;;;;;31.48;18.42;;;2.30;99.90;;;;;;5113015;27;20433;-83
2022/12/19 03:09:52;;;;;;;44.03;18.90;;;2.30;99.90;;;;;;5111465;27;20054;-83
2022/12/19 03:12:28;;;;;;;33.35;18.50;;;2.30;99.90;;;;;;5094539;27;20125;-83
2022/12/19 03:14:56;;;;;;;38.03;19.98;;;2.30;99.90;;;;;;5130375;27;20126;-82
2022/12/19 03:17:22;;;;;;;35.38;18.77;;;2.30;99.90;;;;;;5111297;27;20084;-83
2022/12/19 03:19:48;;;;;;;30.30;17.90;;;2.30;99.90;;;;;;5111986;27;20054;-83
2022/12/19 03:22:14;;;;;;;36.08;18.83;;;2.30;99.90;;;;;;5111057;27;20054;-83
2022/12/19 03:24:40;;;;;;;32.08;17.38;;;3.20;99.90;;;;;;5130190;27;20051;-83
2022/12/19 03:27:15;;;;;;;36.70;18.85;;;2.30;99.90;;;;;;5129853;27;20484;-82
2022/12/19 03:29:52;;;;;;;36.30;19.58;;;2.30;99.90;;;;;;5111444;27;20043;-83
2022/12/19 03:32:21;;;;;;;33.92;18.52;;;2.40;99.90;;;;;;5130007;27;20078;-82
2022/12/19 03:34:52;;;;;;;32.75;18.15;;;2.40;99.90;;;;;;5110921;27;20043;-82
2022/12/19 03:37:24;;;;;;;32.97;17.75;;;2.40;99.90;;;;;;5111163;27;20046;-82
2022/12/19 03:39:54;;;;;;;35.22;18.15;;;2.80;99.90;;;;;;5110259;27;20494;-81
2022/12/19 03:45:10;;;;;;;34.67;18.05;;;2.40;99.90;;;;;;5111167;27;20090;-82
2022/12/19 03:47:46;;;;;;;34.75;19.75;;;2.50;99.90;;;;;;5110498;27;20118;-82
2022/12/19 03:50:12;;;;;;;37.38;20.10;;;2.50;99.90;;;;;;5129233;27;20047;-81
2022/12/19 03:52:57;;;;;;;33.50;18.63;;;1.70;99.90;;;;;;5110111;27;20574;-82
2022/12/19 03:55:38;;;;;;;35.25;19.98;;;2.50;99.90;;;;;;5129424;27;20043;-81
2022/12/19 03:58:12;;;;;;;41.25;20.20;;;2.50;99.90;;;;;;5110545;27;20074;-81
2022/12/19 04:00:41;;;;;;;36.92;21.80;;;2.50;99.90;;;;;;5128850;27;20406;-81
2022/12/19 04:03:08;;;;;;;40.50;20.60;;;2.50;99.90;;;;;;5093126;27;20066;-81
2022/12/19 04:05:36;;;;;;;36.85;20.75;;;2.50;99.90;;;;;;5129414;27;20502;-79
2022/12/19 04:08:06;;;;;;;40.85;21.25;;;1.50;99.90;;;;;;5131907;27;20070;-80
2022/12/19 04:10:39;;;;;;;38.75;21.20;;;2.50;99.90;;;;;;5094737;27;20096;-80
2022/12/19 04:13:08;;;;;;;;;;;2.60;99.90;;;;;;5111539;27;20474;-80
2022/12/19 04:16:08;;;;;;;42.72;20.17;;;3.60;99.90;;;;;;5129605;27;19965;-80
2022/12/19 04:18:35;;;;;;;42.05;21.48;;;2.60;99.90;;;;;;5128881;27;20434;-80
2022/12/19 04:21:12;;;;;;;45.63;21.92;;;3.20;99.90;;;;;;5129113;27;20131;-81
2022/12/19 04:23:42;;;;;;;44.90;22.48;;;2.60;99.90;;;;;;5128747;27;20134;-80
2022/12/19 04:26:09;;;;;;;44.60;22.40;;;2.70;99.90;;;;;;5128230;27;20146;-80
2022/12/19 04:28:42;;;;;;;46.15;23.27;;;2.70;99.90;;;;;;5110245;27;20051;-80
2022/12/19 04:31:12;;;;;;;30.17;16.05;;;2.70;99.90;;;;;;5109568;27;20078;-81
2022/12/19 04:33:37;;;;;;;36.88;21.50;;;2.80;99.90;;;;;;5109598;27;20131;-79
2022/12/19 04:36:03;;;;;;;39.08;22.08;;;2.80;99.90;;;;;;5109863;27;20074;-80
2022/12/19 04:38:29;;;;;;;42.30;22.40;;;2.90;99.90;;;;;;5109564;27;20046;-79
2022/12/19 04:40:55;;;;;;;42.65;22.38;;;2.90;99.90;;;;;;5076317;27;20371;-79
2022/12/19 04:43:21;;;;;;;47.25;21.75;;;2.90;99.90;;;;;;5076032;27;20095;-79
2022/12/19 04:45:47;;;;;;;39.63;22.25;;;2.90;99.90;;;;;;5109532;27;20437;-79
2022/12/19 04:48:12;;;;;;;41.35;22.20;;;2.90;99.90;;;;;;5108774;27;20336;-79
2022/12/19 04:50:38;;;;;;;37.95;22.42;;;3.00;99.90;;;;;;5092121;27;20066;-80
2022/12/19 04:53:04;;;;;;;44.78;23.27;;;2.90;99.90;;;;;;5092396;27;20039;-79
2022/12/19 04:55:30;;;;;;;40.22;21.92;;;3.00;99.90;;;;;;5108982;27;20047;-79
2022/12/19 04:57:56;;;;;;;45.40;22.67;;;3.70;99.90;;;;;;5128024;27;20050;-80
2022/12/19 05:00:21;;;;;;;44.47;22.38;;;3.00;99.90;;;;;;5127082;27;20042;-79
2022/12/19 05:02:47;;;;;;;41.33;24.27;;;3.00;99.90;;;;;;5127750;27;20043;-80
2022/12/19 05:05:13;;;;;;;43.20;22.83;;;3.00;99.90;;;;;;5108227;27;20125;-80
2022/12/19 05:07:39;;;;;;;42.40;24.55;;;3.00;99.90;;;;;;5127138;27;20066;-79
2022/12/19 05:10:06;;;;;;;45.72;23.63;;;4.30;99.90;;;;;;5127243;27;20620;-79
2022/12/19 05:12:31;;;;;;;43.67;22.83;;;3.10;99.90;;;;;;5090960;27;20086;-79
2022/12/19 05:14:57;;;;;;;46.75;23.20;;;3.10;99.90;;;;;;5108633;27;20066;-79
2022/12/19 05:17:23;;;;;;;41.33;23.13;;;3.10;99.90;;;;;;5107871;27;20043;-79
2022/12/19 05:19:48;;;;;;;45.42;23.60;;;3.10;99.90;;;;;;5108385;27;20043;-79
2022/12/19 05:22:14;;;;;;;47.50;24.42;;;3.20;99.90;;;;;;5091985;27;20043;-79
2022/12/19 05:24:40;;;;;;;45.08;23.90;;;3.10;99.90;;;;;;5092458;27;20129;-78
2022/12/19 05:27:06;;;;;;;41.38;22.92;;;3.20;99.90;;;;;;5110494;27;20126;-79
2022/12/19 05:29:32;;;;;;;49.13;23.60;;;3.20;99.90;;;;;;5109393;27;20375;-79
2022/12/19 05:31:57;;;;;;;47.78;22.65;;;3.10;99.90;;;;;;5093042;27;20046;-80
2022/12/19 05:34:23;;;;;;;42.60;22.40;;;3.30;99.90;;;;;;5108498;27;20455;-79
2022/12/19 05:36:49;;;;;;;39.25;22.50;;;3.30;99.90;;;;;;5091660;27;20053;-79
2022/12/19 05:39:15;;;;;;;35.92;21.42;;;3.30;99.90;;;;;;5107874;27;20083;-79
2022/12/19 05:41:41;;;;;;;43.42;23.05;;;3.30;99.90;;;;;;5107805;27;20047;-79
2022/12/19 05:44:08;;;;;;;38.55;21.65;;;3.30;99.90;;;;;;5108211;27;20047;-78
2022/12/19 05:46:33;;;;;;;39.72;22.70;;;4.60;99.90;;;;;;5108109;27;20104;-79
2022/12/19 05:48:59;;;;;;;44.30;22.13;;;3.40;99.90;;;;;;5107991;27;20460;-79
2022/12/19 05:51:25;;;;;;;39.00;21.08;;;4.60;99.90;;;;;;5107491;27;20078;-80
2022/12/19 05:53:50;;;;;;;39.95;20.90;;;3.40;99.90;;;;;;5091266;27;20047;-79
2022/12/19 05:56:19;;;;;;;38.47;20.00;;;3.40;99.90;;;;;;5090758;27;20101;-80
2022/12/19 05:58:45;;;;;;;37.67;20.67;;;3.40;99.90;;;;;;5091126;27;20402;-80
2022/12/19 06:01:13;;;;;;;33.13;19.92;;;3.50;99.90;;;;;;5091377;27;20565;-81
2022/12/19 06:03:39;;;;;;;34.40;19.88;;;3.50;99.90;;;;;;5107530;27;20093;-80
2022/12/19 06:06:08;;;;;;;34.10;19.38;;;3.60;99.90;;;;;;5107237;27;20039;-79
2022/12/19 06:08:34;;;;;;;33.63;18.73;;;3.60;99.90;;;;;;5125832;27;20075;-79
2022/12/19 06:11:02;;;;;;;36.58;19.50;;;3.60;99.90;;;;;;5108314;27;20043;-78
2022/12/19 06:13:28;;;;;;;30.45;17.40;;;3.60;99.90;;;;;;5126369;27;20042;-79
2022/12/19 06:16:02;;;;;;;33.20;17.73;;;3.60;99.90;;;;;;5108138;28;20543;-79
2022/12/19 06:18:29;;;;;;;33.08;17.83;;;3.70;99.90;;;;;;5108336;27;20119;-79
2022/12/19 06:21:06;;;;;;;30.40;16.85;;;3.70;99.90;;;;;;5103871;28;20075;-78
2022/12/19 06:23:35;;;;;;;29.08;15.27;;;3.70;99.90;;;;;;5104069;28;20056;-78
2022/12/19 06:26:02;;;;;;;29.63;15.68;;;3.70;99.90;;;;;;5103414;28;20055;-79
2022/12/19 06:28:29;;;;;;;26.92;16.77;;;3.80;99.90;;;;;;5087822;28;20039;-78
2022/12/19 06:30:56;;;;;;;29.33;15.55;;;3.80;99.90;;;;;;5103805;28;20491;-80
2022/12/19 06:33:22;;;;;;;24.35;14.50;;;3.80;99.90;;;;;;5103996;28;20487;-77
2022/12/19 06:35:55;;;;;;;27.77;16.20;;;4.40;99.90;;;;;;5104243;28;20043;-79
2022/12/19 06:38:21;;;;;;;;;;;3.90;99.90;;;;;;5104955;28;20428;-80
2022/12/19 06:43:31;;;;;;;27.38;15.52;;;3.90;99.90;;;;;;5105485;28;20235;-80
2022/12/19 06:45:57;;;;;;;23.73;14.10;;;3.90;99.90;;;;;;5105656;28;20227;-81
2022/12/19 06:48:22;;;;;;;26.63;15.05;;;3.90;99.90;;;;;;5105756;28;20051;-81
2022/12/19 06:50:48;;;;;;;23.02;13.85;;;3.90;99.90;;;;;;5104692;28;20039;-81
2022/12/19 06:53:14;;;;;;;24.52;14.82;;;4.20;99.90;;;;;;5070360;28;20348;-81
2022/12/19 06:55:40;;;;;;;24.85;14.38;;;4.00;99.90;;;;;;5103266;28;20058;-81
2022/12/19 06:58:05;;;;;;;24.27;13.48;;;5.30;99.90;;;;;;5104238;28;20028;-80
2022/12/19 07:00:35;;;;;;;23.60;12.30;;;4.10;99.90;;;;;;5104994;28;20043;-81
2022/12/19 07:03:03;;;;;;;23.33;12.88;;;4.20;99.90;;;;;;5087917;28;20461;-80
2022/12/19 07:05:28;;;;;;;18.95;11.20;;;4.20;99.90;;;;;;5103979;28;20076;-81
2022/12/19 07:07:54;;;;;;;22.13;12.13;;;4.30;99.90;;;;;;5104627;28;20075;-80
2022/12/19 07:10:20;;;;;;;19.48;12.60;;;4.30;99.90;;;;;;5104261;28;20044;-80
2022/12/19 07:12:45;;;;;;;18.13;11.60;;;4.30;99.90;;;;;;5103023;28;20402;-81
2022/12/19 07:15:11;;;;;;;18.52;10.50;;;4.40;99.90;;;;;;5103633;28;20043;-80
2022/12/19 07:17:38;;;;;;;17.63;10.98;;;4.40;99.90;;;;;;5085862;28;20039;-80
2022/12/19 07:20:04;;;;;;;17.33;10.27;;;4.50;99.90;;;;;;5106902;27;20494;-80
2022/12/19 07:22:33;;;;;;;15.27;9.95;;;4.50;99.90;;;;;;5106828;28;20130;-81
2022/12/19 07:24:59;;;;;;;17.10;10.35;;;4.60;99.90;;;;;;5089775;28;20049;-81
2022/12/19 07:27:27;;;;;;;17.33;10.20;;;5.10;99.90;;;;;;5107295;28;20141;-81
2022/12/19 07:29:53;;;;;;;14.73;10.23;;;4.60;99.90;;;;;;5106407;28;20043;-81
2022/12/19 07:32:19;;;;;;;14.98;10.63;;;4.60;99.90;;;;;;5090325;28;20088;-80
2022/12/19 07:34:45;;;;;;;16.60;9.80;;;5.70;99.90;;;;;;5106069;28;20050;-80
2022/12/19 07:37:10;;;;;;;18.10;11.00;;;4.60;99.90;;;;;;5089775;28;20055;-79
2022/12/19 07:39:36;;;;;;;15.27;10.23;;;4.60;99.90;;;;;;5076293;27;20050;-80
2022/12/19 07:42:02;;;;;;;14.32;10.02;;;4.70;99.90;;;;;;5111836;27;20073;-80
2022/12/19 07:44:27;;;;;;;18.58;11.10;;;4.70;99.90;;;;;;5114487;27;20046;-80
2022/12/19 07:46:53;;;;;;;20.85;9.27;;;4.70;99.90;;;;;;5093056;27;20043;-80
2022/12/19 07:49:19;;;;;;;17.00;9.57;;;4.70;99.90;;;;;;5110567;27;20040;-80
2022/12/19 07:51:44;;;;;;;14.55;9.52;;;4.70;99.90;;;;;;5075232;27;20126;-80
2022/12/19 07:54:10;;;;;;;12.38;8.88;;;4.70;99.90;;;;;;5093481;27;20047;-80
2022/12/19 07:56:36;;;;;;;15.75;9.23;;;4.80;99.90;;;;;;5076377;27;20043;-79
2022/12/19 07:59:01;;;;;;;16.42;9.77;;;4.80;99.90;;;;;;5111193;27;20039;-80
2022/12/19 08:01:27;;;;;;;15.70;9.50;;;4.80;99.90;;;;;;5110200;27;20039;-80
2022/12/19 08:03:53;;;;;;;13.20;9.38;;;4.80;99.90;;;;;;5092562;27;20428;-80
2022/12/19 08:06:19;;;;;;;16.20;9.77;;;5.80;99.90;;;;;;5109809;27;20130;-80
2022/12/19 08:08:44;;;;;;;11.98;8.85;;;4.80;99.90;;;;;;5092370;27;20039;-80
2022/12/19 08:11:13;;;;;;;13.15;9.23;;;4.90;99.90;;;;;;5092983;27;20153;-80
2022/12/19 08:13:40;;;;;;;13.82;9.73;;;5.70;99.90;;;;;;5108866;27;20054;-80
2022/12/19 08:16:06;;;;;;;14.15;9.43;;;4.90;99.90;;;;;;5109152;27;20050;-80
2022/12/19 08:18:32;;;;;;;12.75;8.45;;;5.00;99.90;;;;;;5076553;27;20088;-80
2022/12/19 08:20:57;;;;;;;11.52;8.43;;;4.90;99.90;;;;;;5075066;27;20562;-80
2022/12/19 08:23:24;;;;;;;13.73;9.18;;;5.00;99.90;;;;;;5109632;27;20039;-79
2022/12/19 08:26:02;;;;;;;14.32;8.90;;;5.00;99.90;;;;;;5091797;27;20475;-81
2022/12/19 08:28:32;;;;;;;11.77;8.65;;;5.10;99.90;;;;;;5092651;27;20035;-80
2022/12/19 08:31:04;;;;;;;13.10;8.82;;;5.10;99.90;;;;;;5108850;27;20039;-80
2022/12/19 08:33:29;;;;;;;12.27;8.77;;;5.10;99.90;;;;;;5108818;27;20055;-81
2022/12/19 08:35:55;;;;;;;14.02;9.20;;;5.10;99.90;;;;;;5109279;27;20054;-80
2022/12/19 08:38:21;;;;;;;11.18;7.82;;;5.30;99.90;;;;;;5074932;27;20039;-80
2022/12/19 08:40:53;;;;;;;14.45;9.02;;;5.60;99.90;;;;;;5092636;27;20042;-80
2022/12/19 08:43:20;;;;;;;12.48;8.23;;;5.20;99.90;;;;;;5074715;27;20046;-80
2022/12/19 08:45:48;;;;;;;13.00;8.63;;;5.20;99.90;;;;;;5092453;27;20041;-80
2022/12/19 08:48:14;;;;;;;14.32;7.97;;;5.30;99.90;;;;;;5108160;28;20050;-80
2022/12/19 08:50:39;;;;;;;12.02;8.00;;;5.30;99.90;;;;;;5108714;27;20047;-80
2022/12/19 08:53:05;;;;;;;10.10;7.45;;;5.30;99.90;;;;;;5092021;27;20398;-80
2022/12/19 08:55:31;;;;;;;10.98;7.20;;;5.30;99.90;;;;;;5091186;27;20046;-80
2022/12/19 08:57:56;;;;;;;13.18;8.35;;;5.40;99.90;;;;;;5091803;27;20043;-80
2022/12/19 09:00:22;;;;;;;11.98;8.18;;;6.50;99.90;;;;;;5074000;27;20048;-80
2022/12/19 09:02:48;;;;;;;12.48;8.38;;;5.40;99.90;;;;;;5092352;27;20476;-80
2022/12/19 09:05:13;;;;;;;12.88;8.73;;;6.20;99.90;;;;;;5090854;27;20398;-81
2022/12/19 09:07:39;;;;;;;13.23;8.65;;;5.40;99.90;;;;;;5108482;27;20092;-81
2022/12/19 09:10:06;;;;;;;12.05;9.02;;;5.50;99.90;;;;;;5074573;27;20176;-80
2022/12/19 09:12:32;;;;;;;13.40;8.73;;;5.50;99.90;;;;;;5091503;27;20043;-81
2022/12/19 09:14:58;;;;;;;11.38;9.02;;;6.10;99.90;;;;;;5091622;27;20498;-81
2022/12/19 09:17:23;;;;;;;11.80;8.82;;;6.60;99.90;;;;;;5075816;27;20043;-81
2022/12/19 09:19:49;;;;;;;14.05;8.30;;;5.60;99.90;;;;;;5109658;27;20471;-81
2022/12/19 09:22:15;;;;;;;11.68;8.68;;;5.70;99.90;;;;;;5108459;27;20063;-82
2022/12/19 09:24:41;;;;;;;12.05;8.93;;;5.70;99.90;;;;;;5092262;27;20882;-81
2022/12/19 09:27:06;;;;;;;13.05;9.68;;;5.80;99.90;;;;;;5108295;27;20035;-81
2022/12/19 09:29:32;;;;;;;11.85;9.02;;;7.00;99.90;;;;;;5090795;27;20047;-81
2022/12/19 09:31:58;;;;;;;15.80;9.52;;;7.00;99.90;;;;;;5126493;27;20053;-82
2022/12/19 09:34:25;;;;;;;13.55;9.27;;;5.90;99.90;;;;;;5073459;27;20084;-82
2022/12/19 09:36:51;;;;;;;15.93;9.05;;;6.00;99.90;;;;;;5107980;27;20081;-82
2022/12/19 09:39:17;;;;;;;10.90;8.57;;;6.00;99.90;;;;;;5090506;27;20074;-81
2022/12/19 09:42:03;;;;;;;13.35;9.98;;;6.10;99.90;;;;;;5107927;27;20047;-81
2022/12/19 09:44:46;;;;;;;11.95;8.88;;;6.10;99.90;;;;;;5108155;27;20043;-82
2022/12/19 09:47:18;;;;;;;12.52;9.20;;;6.10;99.90;;;;;;5090465;27;20119;-82
2022/12/19 09:49:46;;;;;;;16.05;10.38;;;6.10;99.90;;;;;;5108399;27;20046;-81
2022/12/19 09:52:31;;;;;;;12.60;9.57;;;6.20;99.90;;;;;;5107403;27;20040;-81
2022/12/19 09:55:27;;;;;;;13.10;9.43;;;6.20;99.90;;;;;;5107392;27;20043;-82
2022/12/19 09:58:25;;;;;;;14.23;9.50;;;6.30;99.90;;;;;;5082197;27;20424;-82
2022/12/19 10:00:56;;;;;;;12.63;8.88;;;6.30;99.90;;;;;;5106256;27;20043;-82
2022/12/19 10:03:31;;;;;;;13.70;9.38;;;6.40;99.90;;;;;;5090551;27;20187;-81
2022/12/19 10:06:04;;;;;;;13.65;9.23;;;6.40;99.90;;;;;;5110054;27;20042;-82
2022/12/19 10:08:34;;;;;;;13.60;9.90;;;6.40;99.90;;;;;;5113201;27;20051;-83
2022/12/19 10:11:04;;;;;;;19.10;10.50;;;6.50;99.90;;;;;;5109973;27;20059;-82
2022/12/19 10:13:49;;;;;;;13.10;9.93;;;6.50;99.90;;;;;;5091145;27;20042;-82
2022/12/19 10:16:14;;;;;;;16.50;10.23;;;6.50;99.90;;;;;;5090571;28;20043;-82
2022/12/19 10:18:59;;;;;;;15.32;10.45;;;6.60;99.90;;;;;;5107287;27;20043;-82
2022/12/19 10:21:49;;;;;;;14.68;10.10;;;6.70;99.90;;;;;;5106388;27;20062;-83
2022/12/19 10:24:39;;;;;;;15.52;9.80;;;6.70;99.90;;;;;;5108037;28;20050;-81
2022/12/19 10:27:34;;;;;;;12.40;8.65;;;6.70;99.90;;;;;;5107465;28;20120;-82
2022/12/19 10:30:17;;;;;;;17.27;9.73;;;6.80;99.90;;;;;;5106645;28;20047;-81
2022/12/19 10:33:09;;;;;;;13.90;8.55;;;6.90;99.90;;;;;;5107905;28;20047;-81
2022/12/19 10:35:42;;;;;;;14.63;9.95;;;7.00;99.90;;;;;;5068433;28;20172;-82
2022/12/19 10:38:10;;;;;;;12.73;9.20;;;7.00;99.90;;;;;;5108065;28;20055;-83
2022/12/19 10:40:47;;;;;;;13.05;9.02;;;7.20;99.90;;;;;;5108653;28;20043;-83
2022/12/19 10:43:26;;;;;;;13.98;9.18;;;7.10;99.90;;;;;;5089331;28;20058;-82
2022/12/19 10:45:57;;;;;;;15.90;8.88;;;8.20;99.90;;;;;;5125679;27;20054;-83
2022/12/19 10:48:23;;;;;;;13.48;9.32;;;7.80;99.90;;;;;;5107191;28;20047;-82
2022/12/19 10:50:49;;;;;;;10.75;8.43;;;7.20;99.90;;;;;;5089514;28;20039;-82
2022/12/19 10:53:23;;;;;;;11.43;8.82;;;7.20;99.90;;;;;;5108024;28;20047;-82
2022/12/19 10:55:52;;;;;;;14.52;9.52;;;7.30;99.90;;;;;;5106899;28;20078;-82
2022/12/19 10:58:36;;;;;;;10.73;8.63;;;7.30;99.90;;;;;;5090268;28;20039;-82
2022/12/19 11:01:02;;;;;;;15.00;9.48;;;7.30;99.90;;;;;;5124687;28;20063;-83
2022/12/19 11:03:28;;;;;;;11.40;9.43;;;7.40;99.90;;;;;;5107100;28;20039;-82
2022/12/19 11:05:56;;;;;;;11.98;8.00;;;7.40;99.90;;;;;;5073679;28;20035;-82
2022/12/19 11:08:34;;;;;;;14.55;8.93;;;7.40;99.90;;;;;;5089765;28;20031;-82
2022/12/19 11:11:03;;;;;;;11.18;8.65;;;7.50;99.90;;;;;;5107156;27;20139;-82
2022/12/19 11:13:40;;;;;;;13.80;8.18;;;7.50;99.90;;;;;;5093613;27;20043;-82
2022/12/19 11:16:07;;;;;;;13.38;8.05;;;7.50;99.90;;;;;;5111120;27;20045;-82
2022/12/19 11:18:44;;;;;;;12.05;8.40;;;7.90;99.90;;;;;;5093835;27;20039;-82
2022/12/19 11:21:20;;;;;;;12.15;7.85;;;7.60;99.90;;;;;;5092696;27;20062;-82
2022/12/19 11:23:58;;;;;;;13.00;7.70;;;8.50;99.90;;;;;;5111590;27;20047;-82
2022/12/19 11:26:39;;;;;;;10.43;7.65;;;7.60;99.90;;;;;;5092333;27;20055;-82
2022/12/19 11:29:17;;;;;;;9.98;7.82;;;7.60;99.90;;;;;;5110387;27;20042;-81
2022/12/19 11:31:44;;;;;;;12.02;8.13;;;7.70;99.90;;;;;;5110336;27;20039;-82
2022/12/19 11:34:16;;;;;;;11.65;8.07;;;7.70;99.90;;;;;;5076073;27;20089;-81
2022/12/19 11:36:59;;;;;;;10.00;7.80;;;7.90;99.90;;;;;;5093622;27;20103;-81
2022/12/19 11:39:30;;;;;;;10.82;7.45;;;7.70;99.90;;;;;;5093042;27;20063;-82
2022/12/19 11:42:24;;;;;;;10.00;7.43;;;7.70;99.90;;;;;;5109957;27;20104;-81
2022/12/19 11:45:06;;;;;;;9.70;6.75;;;7.80;99.90;;;;;;5093291;27;20108;-82
2022/12/19 11:47:42;;;;;;;10.88;7.35;;;7.80;99.90;;;;;;5092089;27;20621;-82
2022/12/19 11:50:16;;;;;;;9.55;7.40;;;7.90;99.90;;;;;;5110678;27;20043;-81
2022/12/19 11:53:26;;;;;;;13.07;7.10;;;7.90;99.90;;;;;;5110105;27;20070;-82
2022/12/19 11:55:59;;;;;;;10.90;7.10;;;8.00;99.90;;;;;;5093865;27;20126;-83
2022/12/19 11:58:29;;;;;;;11.80;7.93;;;8.00;99.90;;;;;;5095131;27;20126;-81
2022/12/19 12:01:33;;;;;;;11.63;6.88;;;8.10;99.90;;;;;;5092927;27;20050;-81
2022/12/19 12:04:13;;;;;;;9.32;6.30;;;8.10;99.90;;;;;;5109458;27;20047;-82
2022/12/19 12:06:46;;;;;;;11.95;7.53;;;8.10;99.90;;;;;;5093033;27;20409;-82
2022/12/19 12:09:21;;;;;;;11.30;7.07;;;8.20;99.90;;;;;;5109205;27;20096;-81
2022/12/19 12:11:52;;;;;;;9.63;6.28;;;8.20;99.90;;;;;;5109561;27;20050;-82
2022/12/19 12:14:25;;;;;;;8.93;6.95;;;8.20;99.90;;;;;;5109809;27;20584;-81
2022/12/19 12:17:28;;;;;;;9.02;6.55;;;8.20;99.90;;;;;;5109675;27;20444;-81
2022/12/19 12:20:33;;;;;;;11.40;6.68;;;8.20;99.90;;;;;;5092533;27;20051;-82
2022/12/19 12:23:27;;;;;;;14.27;6.53;;;8.30;99.90;;;;;;5092366;28;20397;-82
2022/12/19 12:26:03;;;;;;;10.25;6.63;;;8.30;99.90;;;;;;5109911;27;20459;-82
2022/12/19 12:28:31;;;;;;;9.80;6.43;;;8.30;99.90;;;;;;5097759;27;20368;-83
2022/12/19 12:31:20;;;;;;;10.20;6.57;;;8.40;99.90;;;;;;5111562;27;20074;-82
2022/12/19 12:34:18;;;;;;;11.65;6.40;;;8.40;99.90;;;;;;5093073;27;20083;-83
2022/12/19 12:37:23;;;;;;;9.20;6.30;;;8.40;99.90;;;;;;5110702;27;20555;-82
2022/12/19 12:40:04;;;;;;;12.02;6.45;;;8.40;99.90;;;;;;5091803;27;20054;-82
2022/12/19 12:43:11;;;;;;;9.82;6.78;;;8.50;99.90;;;;;;5109234;27;20398;-82
2022/12/19 12:45:39;;;;;;;8.30;6.20;;;8.50;99.90;;;;;;5109373;27;20459;-82
2022/12/19 12:48:30;;;;;;;12.70;6.63;;;8.50;99.90;;;;;;5108586;27;20397;-82
2022/12/19 12:50:59;;;;;;;8.38;6.25;;;8.50;99.90;;;;;;5091248;27;20082;-83
2022/12/19 12:53:30;;;;;;;8.95;6.20;;;8.50;99.90;;;;;;5092247;27;20035;-83
2022/12/19 12:55:57;;;;;;;9.10;6.60;;;9.70;99.90;;;;;;5090984;27;20569;-84
2022/12/19 12:58:47;;;;;;;8.63;6.80;;;8.40;99.90;;;;;;5108677;27;20126;-83
2022/12/19 13:01:28;;;;;;;8.65;6.07;;;8.20;99.90;;;;;;5092306;27;20043;-83
2022/12/19 13:04:16;;;;;;;11.75;6.35;;;8.40;99.90;;;;;;5091717;27;20486;-83
2022/12/19 13:06:51;;;;;;;7.70;5.80;;;8.50;99.90;;;;;;5108643;27;20050;-84
2022/12/19 13:09:16;;;;;;;14.25;7.00;;;9.40;99.90;;;;;;5107618;27;20040;-83